This is the latest recevied weather packets stored in our database for station/object OM5AST-13. If no packets are shown the sender has not sent any weather packets the latest 10 day(s).
| Time | Temp. | Humidity | Pressure | Rain* | Wind** | Luminosity | Snow |
|---|---|---|---|---|---|---|---|
| 1777697035 | 12.22° C | 60% | - | 0 mm | - | 0 W/m² | - |
| 1777695836 | 11.67° C | 59% | - | 0 mm | - | 0 W/m² | - |
| 1777694635 | 11.67° C | 59% | - | 0 mm | - | 0 W/m² | - |
| 1777693435 | 11.67° C | 59% | - | 0 mm | - | 0 W/m² | - |
| 1777692235 | 12.22° C | 59% | - | 0 mm | - | 0 W/m² | - |
| 1777691035 | 12.22° C | 59% | - | 0 mm | - | 0 W/m² | - |
| 1777689835 | 12.78° C | 58% | - | 0 mm | - | 0 W/m² | - |
| 1777688635 | 13.33° C | 56% | - | 0 mm | - | 0 W/m² | - |
| 1777687435 | 14.44° C | 49% | - | 0 mm | - | 0 W/m² | - |
| 1777686235 | 14.44° C | 51% | - | 0 mm | - | 0 W/m² | - |
| 1777685036 | 14.44° C | 49% | - | 0 mm | - | 0 W/m² | - |
| 1777683835 | 15° C | 48% | - | 0 mm | - | 0 W/m² | - |
| 1777682635 | 15° C | 49% | - | 0 mm | - | 0 W/m² | - |
| 1777681435 | 15° C | 48% | - | 0 mm | - | 0 W/m² | - |
| 1777680235 | 15° C | 48% | - | 0 mm | - | 0 W/m² | - |
| 1777679035 | 15° C | 50% | - | 0 mm | - | 0 W/m² | - |
| 1777677835 | 15.56° C | 48% | - | 0 mm | - | 0 W/m² | - |
| 1777676635 | 15.56° C | 47% | - | 0 mm | - | 0 W/m² | - |
| 1777675435 | 15.56° C | 47% | - | 0 mm | - | 0 W/m² | - |
| 1777674236 | 15.56° C | 46% | - | 0 mm | - | 0 W/m² | - |
| 1777673036 | 16.11° C | 45% | - | 0 mm | - | 0 W/m² | - |
| 1777671835 | 15.56° C | 46% | - | 0 mm | - | 0 W/m² | - |
| 1777670635 | 15.56° C | 46% | - | 0 mm | - | 0 W/m² | - |
| 1777669435 | 15.56° C | 46% | - | 0 mm | - | 0 W/m² | - |
| 1777668235 | 15.56° C | 46% | - | 0 mm | - | 0 W/m² | - |
* Rain latest hour (hover to see other rain measurements)
** Current wind speed in m/s (hover to see current wind gust speed)